createdAt,value
2023-02-04T00:00:41.429Z,103038.19
2023-02-04T00:01:43.224Z,103030.25
2023-02-04T00:02:45.254Z,103040.97
2023-02-04T00:03:47.129Z,103033.91
2023-02-04T00:04:48.932Z,103027.25
2023-02-04T00:05:50.736Z,103000.44
2023-02-04T00:06:52.650Z,103046.41
2023-02-04T00:07:54.492Z,103050.84
2023-02-04T00:08:56.405Z,103042.94
2023-02-04T00:09:58.205Z,103044.78
2023-02-04T00:11:00.025Z,103049.22
2023-02-04T00:12:01.862Z,103043.06
2023-02-04T00:13:04.355Z,103043.06
2023-02-04T00:14:06.203Z,103052.81
2023-02-04T00:15:08.640Z,103043.25
2023-02-04T00:16:10.471Z,103047.63
2023-02-04T00:17:13.112Z,103045.13
2023-02-04T00:18:14.926Z,103049.47
2023-02-04T00:19:17.143Z,103046.88
2023-02-04T00:20:19.825Z,103045.13
2023-02-04T00:21:21.648Z,103055.75
2023-02-04T00:22:23.554Z,103055.84
2023-02-04T00:23:25.438Z,103068.25
2023-02-04T00:24:27.208Z,103059.47
2023-02-04T00:25:28.988Z,103064.84
2023-02-04T00:26:30.917Z,103067.50
2023-02-04T00:27:32.705Z,103066.75
2023-02-04T00:28:35.039Z,103039.97
2023-02-04T00:29:36.844Z,103077.38
2023-02-04T00:30:38.667Z,103072.31
2023-02-04T00:31:40.550Z,103072.56
2023-02-04T00:32:42.524Z,103081.97
2023-02-04T00:33:44.313Z,103081.09
2023-02-04T00:34:46.176Z,103095.28
2023-02-04T00:35:48.017Z,103094.44
2023-02-04T00:36:49.964Z,103091.81
2023-02-04T00:37:51.915Z,103098.97
2023-02-04T00:38:53.899Z,103084.91
2023-02-04T00:39:55.789Z,103087.59
2023-02-04T00:40:57.624Z,103088.41
2023-02-04T00:41:59.418Z,103088.56
2023-02-04T00:43:01.297Z,103094.72
2023-02-04T00:44:03.203Z,103094.72
2023-02-04T00:45:05.930Z,103090.34
2023-02-04T00:46:08.014Z,103100.03
2023-02-04T00:47:09.912Z,103092.16
2023-02-04T00:48:11.723Z,103090.41
2023-02-04T00:49:14.596Z,103101.03
2023-02-04T00:50:16.863Z,103098.50
2023-02-04T00:51:18.892Z,103094.13
2023-02-04T00:52:20.673Z,103101.16
2023-02-04T00:53:22.492Z,103102.06
2023-02-04T00:54:24.235Z,103112.75
2023-02-04T00:55:26.163Z,103103.94
2023-02-04T00:56:28.014Z,103111.88
2023-02-04T00:57:29.822Z,103091.84
2023-02-04T00:58:32.042Z,103122.56
2023-02-04T00:59:33.991Z,103115.50
2023-02-04T01:00:37.504Z,103122.63
2023-02-04T01:01:39.402Z,103121.00
2023-02-04T01:02:41.414Z,103117.50
2023-02-04T01:03:43.190Z,103124.47
2023-02-04T01:04:45.014Z,103124.47
2023-02-04T01:05:46.823Z,103115.91
2023-02-04T01:06:48.708Z,103119.25
2023-02-04T01:07:50.522Z,103108.06
2023-02-04T01:08:52.655Z,103121.84
2023-02-04T01:09:54.557Z,103119.31
2023-02-04T01:10:56.345Z,103099.34
2023-02-04T01:11:58.176Z,103101.09
2023-02-04T01:13:00.049Z,103118.50
2023-02-04T01:14:02.516Z,103112.41
2023-02-04T01:15:05.376Z,103116.81
2023-02-04T01:16:07.165Z,103114.28
2023-02-04T01:17:08.997Z,103127.44
2023-02-04T01:18:12.847Z,103123.97
2023-02-04T01:19:14.765Z,103127.50
2023-02-04T01:20:16.848Z,103134.59
2023-02-04T01:21:18.638Z,103136.41
2023-02-04T01:22:20.709Z,103138.25
2023-02-04T01:23:22.486Z,103141.75
2023-02-04T01:24:24.443Z,103141.81
2023-02-04T01:25:44.616Z,103143.47
2023-02-04T01:26:46.421Z,103135.75
2023-02-04T01:27:48.343Z,103147.16
2023-02-04T01:28:50.756Z,103144.59
2023-02-04T01:29:52.605Z,103145.50
2023-02-04T01:30:54.961Z,103141.28
2023-02-04T01:31:56.889Z,103153.50
2023-02-04T01:32:58.793Z,103155.34
2023-02-04T01:34:01.397Z,103155.34
2023-02-04T01:35:03.816Z,103158.00
2023-02-04T01:36:05.984Z,103162.50
2023-02-04T01:37:07.780Z,103157.19
2023-02-04T01:38:09.609Z,103159.84
2023-02-04T01:39:11.476Z,103158.13
2023-02-04T01:40:13.549Z,103147.88
2023-02-04T01:41:16.409Z,103159.97
2023-02-04T01:42:18.312Z,103156.38
2023-02-04T01:43:23.284Z,103152.84
2023-02-04T01:44:25.116Z,103119.16
2023-02-04T01:45:28.284Z,103160.88
2023-02-04T01:46:31.526Z,103162.63
2023-02-04T01:47:33.424Z,103152.97
2023-02-04T01:48:35.354Z,103160.88
2023-02-04T01:49:37.206Z,103156.66
2023-02-04T01:50:39.146Z,103175.06
2023-02-04T01:51:41.139Z,103170.69
2023-02-04T01:52:45.943Z,103169.88
2023-02-04T01:53:47.803Z,103163.66
2023-02-04T01:54:49.988Z,103167.25
2023-02-04T01:55:52.656Z,103164.72
2023-02-04T01:56:55.546Z,103173.44
2023-02-04T01:57:59.140Z,103168.19
2023-02-04T01:59:01.378Z,103171.72
2023-02-04T02:00:03.775Z,103169.09
2023-02-04T02:01:53.490Z,103160.41
2023-02-04T02:02:55.513Z,103147.03
2023-02-04T02:03:58.563Z,103164.50
2023-02-04T02:05:00.492Z,103172.56
2023-02-04T02:06:02.610Z,103170.91
2023-02-04T02:07:05.784Z,103178.97
2023-02-04T02:08:08.804Z,103177.25
2023-02-04T02:09:13.064Z,103159.88
2023-02-04T02:10:16.049Z,103181.72
2023-02-04T02:11:18.032Z,103169.53
2023-02-04T02:12:19.878Z,103185.31
2023-02-04T02:13:22.262Z,103187.06
2023-02-04T02:14:24.265Z,103196.84
2023-02-04T02:15:26.813Z,103186.50
2023-02-04T02:16:28.686Z,103203.94
2023-02-04T02:17:31.251Z,103206.78
2023-02-04T02:18:33.161Z,103204.94
2023-02-04T02:19:38.268Z,103204.94
2023-02-04T02:20:42.996Z,103212.91
2023-02-04T02:22:03.584Z,103213.72
2023-02-04T02:23:19.327Z,103195.50
2023-02-04T02:24:33.416Z,103223.38
2023-02-04T02:25:35.410Z,103218.06
2023-02-04T02:26:38.437Z,103219.94
2023-02-04T02:27:40.772Z,103194.19
2023-02-04T02:28:43.211Z,103220.97
2023-02-04T02:29:45.192Z,103228.09
2023-02-04T02:30:49.239Z,103225.50
2023-02-04T02:31:51.349Z,103221.09
2023-02-04T02:32:53.433Z,103220.47
2023-02-04T02:33:55.331Z,103231.78
2023-02-04T02:34:57.273Z,103236.19
2023-02-04T02:35:59.296Z,103235.34
2023-02-04T02:37:02.629Z,103235.38
2023-02-04T02:38:04.400Z,103232.84
2023-02-04T02:39:06.316Z,103235.38
2023-02-04T02:40:10.592Z,103233.66
2023-02-04T02:41:14.459Z,103238.97
2023-02-04T02:42:18.116Z,103241.59
2023-02-04T02:43:26.447Z,103240.75
2023-02-04T02:44:29.167Z,103240.69
2023-02-04T02:45:33.705Z,103242.53
2023-02-04T02:46:35.604Z,103244.31
2023-02-04T02:47:37.537Z,103235.47
2023-02-04T02:48:39.368Z,103244.34
2023-02-04T02:49:42.082Z,103246.16
2023-02-04T02:50:45.275Z,103242.63
2023-02-04T02:51:48.269Z,103233.88
2023-02-04T02:52:50.143Z,103236.41
2023-02-04T02:53:52.049Z,103233.81
2023-02-04T02:54:53.968Z,103213.91
2023-02-04T02:55:55.894Z,103200.06
2023-02-04T02:57:00.015Z,103247.94
2023-02-04T02:58:01.956Z,103240.88
2023-02-04T02:59:21.888Z,103244.31
2023-02-04T03:00:29.705Z,103246.09
2023-02-04T03:01:33.089Z,103241.72
2023-02-04T03:02:35.198Z,103239.13
2023-02-04T03:03:41.919Z,103255.06
2023-02-04T03:04:49.660Z,103248.03
2023-02-04T03:05:55.844Z,103240.31
2023-02-04T03:06:57.977Z,103256.91
2023-02-04T03:08:00.163Z,103257.81
2023-02-04T03:09:02.256Z,103247.50
2023-02-04T03:10:05.181Z,103258.78
2023-02-04T03:11:07.122Z,103257.19
2023-02-04T03:12:08.971Z,103261.50
2023-02-04T03:13:13.977Z,103268.56
2023-02-04T03:14:15.865Z,103266.78
2023-02-04T03:15:18.173Z,103273.84
2023-02-04T03:16:21.107Z,103265.09
2023-02-04T03:17:23.080Z,103254.91
2023-02-04T03:18:25.022Z,103276.50
2023-02-04T03:19:28.165Z,103272.19
2023-02-04T03:20:33.104Z,103267.09
2023-02-04T03:21:35.888Z,103268.66
2023-02-04T03:22:38.810Z,103279.25
2023-02-04T03:23:41.079Z,103277.50
2023-02-04T03:24:43.044Z,103283.72
2023-02-04T03:25:45.442Z,103281.06
2023-02-04T03:26:47.308Z,103275.03
2023-02-04T03:27:49.125Z,103282.91
2023-02-04T03:28:50.972Z,103286.47
2023-02-04T03:29:52.782Z,103274.22
2023-02-04T03:30:56.259Z,103290.88
2023-02-04T03:32:00.108Z,103283.00
2023-02-04T03:33:02.109Z,103282.94
2023-02-04T03:34:05.055Z,103284.84
2023-02-04T03:35:06.965Z,103283.84
2023-02-04T03:36:09.549Z,103283.91
2023-02-04T03:37:11.444Z,103289.16
2023-02-04T03:38:13.265Z,103288.28
2023-02-04T03:39:15.128Z,103291.09
2023-02-04T03:40:17.111Z,103289.25
2023-02-04T03:41:19.195Z,103299.81
2023-02-04T03:42:21.081Z,103298.09
2023-02-04T03:43:22.946Z,103286.72
2023-02-04T03:44:27.016Z,103304.31
2023-02-04T03:45:37.510Z,103300.72
2023-02-04T03:46:45.809Z,103303.28
2023-02-04T03:47:47.644Z,103306.03
2023-02-04T03:48:50.144Z,103302.50
2023-02-04T03:49:51.990Z,103301.69
2023-02-04T03:50:53.786Z,103300.81
2023-02-04T03:51:55.601Z,103304.38
2023-02-04T03:52:57.441Z,103299.16
2023-02-04T03:53:59.244Z,103297.44
2023-02-04T03:55:01.041Z,103293.13
2023-02-04T03:56:02.945Z,103299.97
2023-02-04T03:57:04.715Z,103302.63
2023-02-04T03:58:06.686Z,103300.91
2023-02-04T03:59:08.564Z,103300.91
2023-02-04T04:00:11.446Z,103299.16
2023-02-04T04:01:15.985Z,103296.75
2023-02-04T04:02:17.823Z,103300.06
2023-02-04T04:03:19.589Z,103309.75
2023-02-04T04:04:21.528Z,103308.13
2023-02-04T04:05:23.380Z,103307.22
2023-02-04T04:06:25.290Z,103310.75
2023-02-04T04:07:27.060Z,103306.28
2023-02-04T04:08:28.860Z,103287.28
2023-02-04T04:09:30.658Z,103301.16
2023-02-04T04:10:33.125Z,103316.03
2023-02-04T04:11:35.075Z,103306.38
2023-02-04T04:12:37.183Z,103309.91
2023-02-04T04:13:39.070Z,103315.16
2023-02-04T04:14:40.946Z,103317.88
2023-02-04T04:15:42.879Z,103311.69
2023-02-04T04:16:44.748Z,103308.28
2023-02-04T04:17:46.651Z,103298.72
2023-02-04T04:18:48.586Z,103312.69
2023-02-04T04:19:50.369Z,103311.75
2023-02-04T04:20:52.268Z,103313.59
2023-02-04T04:21:54.180Z,103311.78
2023-02-04T04:22:56.072Z,103302.34
2023-02-04T04:23:57.836Z,103312.69
2023-02-04T04:24:59.656Z,103307.59
2023-02-04T04:26:01.430Z,103307.69
2023-02-04T04:27:03.324Z,103317.19
2023-02-04T04:28:05.287Z,103327.78
2023-02-04T04:29:07.112Z,103325.13
2023-02-04T04:30:09.680Z,103331.34
2023-02-04T04:31:11.811Z,103330.50
2023-02-04T04:32:13.673Z,103329.59
2023-02-04T04:33:15.483Z,103329.59
2023-02-04T04:34:17.358Z,103329.66
2023-02-04T04:35:19.167Z,103340.22
2023-02-04T04:36:20.949Z,103335.00
2023-02-04T04:37:22.791Z,103342.94
2023-02-04T04:38:24.588Z,103345.59
2023-02-04T04:39:26.494Z,103304.75
2023-02-04T04:40:28.456Z,103347.44
2023-02-04T04:41:30.218Z,103335.28
2023-02-04T04:42:32.066Z,103350.91
2023-02-04T04:43:33.886Z,103351.81
2023-02-04T04:44:35.656Z,103343.91
2023-02-04T04:45:37.459Z,103349.19
2023-02-04T04:46:40.873Z,103348.34
2023-02-04T04:47:42.775Z,103343.31
2023-02-04T04:48:44.588Z,103354.56
2023-02-04T04:49:46.389Z,103352.81
2023-02-04T04:50:48.165Z,103351.94
2023-02-04T04:51:50.060Z,103347.53
2023-02-04T04:52:51.916Z,103353.72
2023-02-04T04:53:53.672Z,103353.72
2023-02-04T04:54:55.589Z,103358.16
2023-02-04T04:55:57.396Z,103352.03
2023-02-04T04:56:59.181Z,103352.00
2023-02-04T04:58:00.954Z,103353.75
2023-02-04T04:59:03.448Z,103358.22
2023-02-04T05:00:07.691Z,103360.28
2023-02-04T05:01:09.515Z,103362.63
2023-02-04T05:02:11.430Z,103365.34
2023-02-04T05:03:13.829Z,103362.69
2023-02-04T05:04:15.626Z,103363.59
2023-02-04T05:05:17.533Z,103368.91
2023-02-04T05:06:25.264Z,103360.13
2023-02-04T05:07:27.802Z,103361.81
2023-02-04T05:08:29.700Z,103363.59
2023-02-04T05:09:31.510Z,103372.47
2023-02-04T05:10:33.455Z,103372.47
2023-02-04T05:11:35.748Z,103371.56
2023-02-04T05:12:37.546Z,103355.91
2023-02-04T05:13:39.323Z,103360.97
2023-02-04T05:14:41.572Z,103360.25
2023-02-04T05:15:43.345Z,103364.53
2023-02-04T05:16:45.224Z,103369.84
2023-02-04T05:17:47.034Z,103369.84
2023-02-04T05:18:48.842Z,103358.38
2023-02-04T05:19:50.613Z,103369.91
2023-02-04T05:20:52.464Z,103365.47
2023-02-04T05:21:54.353Z,103365.47
2023-02-04T05:22:57.382Z,103378.72
2023-02-04T05:23:59.205Z,103377.84
2023-02-04T05:25:01.019Z,103375.19
2023-02-04T05:26:02.817Z,103382.28
2023-02-04T05:27:04.656Z,103383.19
2023-02-04T05:28:06.497Z,103385.84
2023-02-04T05:29:10.384Z,103376.31
2023-02-04T05:30:13.376Z,103381.41
2023-02-04T05:31:15.266Z,103378.00
2023-02-04T05:32:17.084Z,103383.22
2023-02-04T05:33:18.869Z,103381.47
2023-02-04T05:34:20.820Z,103385.88
2023-02-04T05:35:22.650Z,103388.50
2023-02-04T05:36:24.676Z,103371.09
2023-02-04T05:37:26.505Z,103381.47
2023-02-04T05:38:28.375Z,103383.28
2023-02-04T05:39:30.184Z,103381.59
2023-02-04T05:40:32.270Z,103385.03
2023-02-04T05:41:34.209Z,103399.19
2023-02-04T05:42:35.993Z,103398.28
2023-02-04T05:43:38.340Z,103404.47
2023-02-04T05:44:40.144Z,103402.75
2023-02-04T05:45:42.025Z,103390.56
2023-02-04T05:46:43.830Z,103413.34
2023-02-04T05:47:45.790Z,103412.47
2023-02-04T05:48:47.538Z,103410.72
2023-02-04T05:49:49.337Z,103418.66
2023-02-04T05:50:51.219Z,103426.63
2023-02-04T05:51:53.044Z,103424.00
2023-02-04T05:52:54.834Z,103426.63
2023-02-04T05:53:56.601Z,103439.03
2023-02-04T05:54:58.409Z,103436.41
2023-02-04T05:56:00.243Z,103433.75
2023-02-04T05:57:02.060Z,103441.72
2023-02-04T05:58:03.933Z,103439.22
2023-02-04T05:59:05.827Z,103447.88
2023-02-04T06:00:08.615Z,103447.91
2023-02-04T06:01:16.309Z,103453.19
2023-02-04T06:02:18.572Z,103450.53
2023-02-04T06:03:21.661Z,103447.06
2023-02-04T06:04:23.522Z,103446.16
2023-02-04T06:05:25.624Z,103444.41
2023-02-04T06:06:27.391Z,103441.78
2023-02-04T06:07:29.142Z,103442.69
2023-02-04T06:08:30.929Z,103439.16
2023-02-04T06:09:32.900Z,103445.34
2023-02-04T06:10:34.680Z,103438.28
2023-02-04T06:11:36.608Z,103439.28
2023-02-04T06:12:38.684Z,103440.97
2023-02-04T06:13:40.460Z,103434.84
2023-02-04T06:14:42.309Z,103439.22
2023-02-04T06:15:44.126Z,103436.56
2023-02-04T06:16:46.041Z,103440.13
2023-02-04T06:17:47.921Z,103434.84
2023-02-04T06:18:49.826Z,103437.47
2023-02-04T06:19:51.597Z,103433.06
2023-02-04T06:20:53.378Z,103425.31
2023-02-04T06:21:55.151Z,103441.94
2023-02-04T06:22:57.005Z,103440.22
2023-02-04T06:23:58.769Z,103423.56
2023-02-04T06:25:00.620Z,103438.41
2023-02-04T06:26:02.995Z,103436.66
2023-02-04T06:27:04.800Z,103421.00
2023-02-04T06:28:06.647Z,103434.91
2023-02-04T06:29:08.749Z,103432.31
2023-02-04T06:30:11.847Z,103424.56
2023-02-04T06:31:13.791Z,103438.47
2023-02-04T06:32:15.735Z,103434.97
2023-02-04T06:33:17.518Z,103436.75
2023-02-04T06:34:19.412Z,103431.44
2023-02-04T06:35:21.373Z,103441.19
2023-02-04T06:36:23.157Z,103444.75
2023-02-04T06:37:24.964Z,103443.84
2023-02-04T06:38:26.736Z,103446.50
2023-02-04T06:39:28.507Z,103442.13
2023-02-04T06:40:30.433Z,103444.75
2023-02-04T06:41:32.417Z,103438.66
2023-02-04T06:42:34.317Z,103450.97
2023-02-04T06:43:36.152Z,103413.50
2023-02-04T06:44:37.910Z,103450.09
2023-02-04T06:45:39.694Z,103446.59
2023-02-04T06:46:41.490Z,103431.03
2023-02-04T06:47:43.316Z,103450.22
2023-02-04T06:48:45.160Z,103458.09
2023-02-04T06:49:46.924Z,103458.09
2023-02-04T06:50:48.789Z,103460.75
2023-02-04T06:51:51.245Z,103459.00
2023-02-04T06:52:53.040Z,103455.47
2023-02-04T06:53:54.848Z,103459.03
2023-02-04T06:54:56.653Z,103444.94
2023-02-04T06:55:58.498Z,103451.13
2023-02-04T06:57:06.608Z,103457.28
2023-02-04T06:58:08.660Z,103459.91
2023-02-04T06:59:10.985Z,103445.13
2023-02-04T07:00:13.442Z,103459.94
2023-02-04T07:01:15.328Z,103461.72
2023-02-04T07:02:17.266Z,103462.59
2023-02-04T07:03:19.045Z,103463.47
2023-02-04T07:04:20.891Z,103469.66
2023-02-04T07:05:22.767Z,103448.72
2023-02-04T07:06:24.639Z,103474.06
2023-02-04T07:07:26.966Z,103461.72
2023-02-04T07:08:28.980Z,103470.50
2023-02-04T07:09:30.746Z,103468.75
2023-02-04T07:10:33.138Z,103470.59
2023-02-04T07:11:35.139Z,103479.28
2023-02-04T07:12:36.931Z,103476.56
2023-02-04T07:13:38.769Z,103481.84
2023-02-04T07:14:40.679Z,103486.25
2023-02-04T07:15:42.670Z,103478.25
2023-02-04T07:16:44.600Z,103480.84
2023-02-04T07:17:46.452Z,103476.38
2023-02-04T07:18:48.232Z,103477.22
2023-02-04T07:19:50.021Z,103471.00
2023-02-04T07:20:51.963Z,103480.63
2023-02-04T07:21:56.817Z,103479.63
2023-02-04T07:22:58.862Z,103473.38
2023-02-04T07:24:00.731Z,103483.91
2023-02-04T07:25:02.484Z,103479.41
2023-02-04T07:26:04.325Z,103477.63
2023-02-04T07:27:06.395Z,103481.03
2023-02-04T07:28:08.309Z,103481.84
2023-02-04T07:29:17.341Z,103480.03
2023-02-04T07:30:22.603Z,103486.03
2023-02-04T07:31:24.472Z,103489.47
2023-02-04T07:32:27.929Z,103496.47
2023-02-04T07:33:29.801Z,103478.03
2023-02-04T07:34:31.626Z,103495.41
2023-02-04T07:35:33.502Z,103500.63
2023-02-04T07:36:35.412Z,103504.13
2023-02-04T07:37:37.224Z,103507.59
2023-02-04T07:38:39.010Z,103507.53
2023-02-04T07:39:40.885Z,103505.72
2023-02-04T07:40:43.122Z,103514.50
2023-02-04T07:41:45.124Z,103507.38
2023-02-04T07:42:49.331Z,103511.66
2023-02-04T07:43:53.262Z,103514.25
2023-02-04T07:44:55.261Z,103514.25
2023-02-04T07:45:57.166Z,103514.16
2023-02-04T07:46:59.034Z,103514.16
2023-02-04T07:48:00.863Z,103507.94
2023-02-04T07:49:02.993Z,103508.75
2023-02-04T07:50:05.320Z,103519.34
2023-02-04T07:51:07.336Z,103504.28
2023-02-04T07:52:09.822Z,103511.28
2023-02-04T07:53:11.630Z,103517.44
2023-02-04T07:54:13.447Z,103513.03
2023-02-04T07:55:15.264Z,103513.84
2023-02-04T07:56:17.109Z,103520.91
2023-02-04T07:57:20.598Z,103505.00
2023-02-04T07:58:23.171Z,103512.94
2023-02-04T07:59:24.984Z,103520.84
2023-02-04T08:00:26.767Z,103519.09
2023-02-04T08:01:28.573Z,103526.13
2023-02-04T08:02:30.599Z,103511.97
2023-02-04T08:03:33.003Z,103525.19
2023-02-04T08:04:34.924Z,103517.19
2023-02-04T08:05:36.753Z,103526.06
2023-02-04T08:06:38.532Z,103521.63
2023-02-04T08:07:40.569Z,103520.81
2023-02-04T08:08:42.341Z,103522.47
2023-02-04T08:09:44.103Z,103529.53
2023-02-04T08:10:46.121Z,103530.44
2023-02-04T08:11:47.916Z,103532.19
2023-02-04T08:12:49.708Z,103533.06
2023-02-04T08:13:51.478Z,103531.25
2023-02-04T08:14:53.349Z,103537.47
2023-02-04T08:15:55.232Z,103535.66
2023-02-04T08:16:57.117Z,103530.50
2023-02-04T08:17:59.019Z,103533.91
2023-02-04T08:19:00.880Z,103524.31
2023-02-04T08:20:03.290Z,103539.19
2023-02-04T08:21:06.349Z,103541.78
2023-02-04T08:22:08.200Z,103541.78
2023-02-04T08:23:10.116Z,103552.41
2023-02-04T08:24:13.172Z,103538.28
2023-02-04T08:25:15.173Z,103546.25
2023-02-04T08:26:16.999Z,103542.69
2023-02-04T08:27:18.822Z,103540.03
2023-02-04T08:28:20.654Z,103543.53
2023-02-04T08:29:22.502Z,103535.63
2023-02-04T08:30:24.329Z,103541.75
2023-02-04T08:31:26.455Z,103541.78
2023-02-04T08:32:29.399Z,103538.22
2023-02-04T08:33:31.206Z,103536.47
2023-02-04T08:34:33.106Z,103540.88
2023-02-04T08:35:34.856Z,103543.53
2023-02-04T08:36:36.697Z,103537.38
2023-02-04T08:37:38.653Z,103541.75
2023-02-04T08:38:41.287Z,103512.06
2023-02-04T08:39:46.275Z,103523.41
2023-02-04T08:40:48.189Z,103545.25
2023-02-04T08:41:51.371Z,103547.03
2023-02-04T08:42:53.160Z,103541.03
2023-02-04T08:43:55.016Z,103541.75
2023-02-04T08:44:56.850Z,103544.50
2023-02-04T08:45:58.697Z,103536.44
2023-02-04T08:47:00.591Z,103541.72
2023-02-04T08:48:02.512Z,103538.16
2023-02-04T08:49:04.339Z,103529.28
2023-02-04T08:50:06.523Z,103548.69
2023-02-04T08:51:08.446Z,103538.94
2023-02-04T08:52:10.255Z,103541.56
2023-02-04T08:53:12.129Z,103525.03
2023-02-04T08:54:13.915Z,103545.03
2023-02-04T08:55:15.958Z,103543.19
2023-02-04T08:56:20.500Z,103545.84
2023-02-04T08:57:22.315Z,103551.91
2023-02-04T08:58:24.220Z,103552.75
2023-02-04T08:59:26.064Z,103558.94
2023-02-04T09:00:28.060Z,103558.88
2023-02-04T09:01:30.079Z,103566.81
2023-02-04T09:02:31.887Z,103562.31
2023-02-04T09:03:33.718Z,103557.84
2023-02-04T09:04:35.550Z,103559.66
2023-02-04T09:05:37.353Z,103566.69
2023-02-04T09:06:39.194Z,103558.72
2023-02-04T09:07:41.062Z,103559.56
2023-02-04T09:08:42.819Z,103561.28
2023-02-04T09:09:44.590Z,103560.38
2023-02-04T09:10:46.741Z,103554.34
2023-02-04T09:11:48.608Z,103557.72
2023-02-04T09:12:55.890Z,103557.66
2023-02-04T09:13:57.755Z,103546.31
2023-02-04T09:14:59.512Z,103559.38
2023-02-04T09:16:01.337Z,103562.88
2023-02-04T09:17:04.207Z,103562.88
2023-02-04T09:18:14.687Z,103554.91
2023-02-04T09:19:19.255Z,103559.28
2023-02-04T09:20:21.779Z,103554.81
2023-02-04T09:21:23.536Z,103562.78
2023-02-04T09:22:25.353Z,103556.63
2023-02-04T09:23:27.200Z,103551.44
2023-02-04T09:24:29.053Z,103557.53
2023-02-04T09:25:30.844Z,103553.97
2023-02-04T09:26:32.709Z,103557.53
2023-02-04T09:27:34.529Z,103551.34
2023-02-04T09:28:36.465Z,103554.00
2023-02-04T09:29:38.561Z,103553.97
2023-02-04T09:30:41.970Z,103555.72
2023-02-04T09:31:43.882Z,103544.38
2023-02-04T09:32:45.656Z,103552.16
2023-02-04T09:33:47.453Z,103553.06
2023-02-04T09:34:49.216Z,103534.78
2023-02-04T09:35:51.014Z,103553.97
2023-02-04T09:36:52.794Z,103552.16
2023-02-04T09:37:54.652Z,103554.78
2023-02-04T09:38:56.616Z,103549.50
2023-02-04T09:39:58.379Z,103551.25
2023-02-04T09:41:02.992Z,103549.50
2023-02-04T09:42:04.914Z,103539.03
2023-02-04T09:43:07.185Z,103536.41
2023-02-04T09:44:15.665Z,103551.25
2023-02-04T09:45:21.844Z,103544.09
2023-02-04T09:46:28.606Z,103543.28
2023-02-04T09:47:31.319Z,103549.38
2023-02-04T09:48:33.381Z,103547.56
2023-02-04T09:49:35.176Z,103552.03
2023-02-04T09:50:37.154Z,103523.25
2023-02-04T09:51:39.439Z,103556.47
2023-02-04T09:52:41.298Z,103549.41
2023-02-04T09:53:43.194Z,103550.28
2023-02-04T09:54:45.989Z,103545.22
2023-02-04T09:55:49.641Z,103545.84
2023-02-04T09:56:52.716Z,103545.91
2023-02-04T09:57:54.619Z,103550.28
2023-02-04T09:58:56.556Z,103550.28
2023-02-04T09:59:58.812Z,103552.03
2023-02-04T10:01:12.008Z,103545.84
2023-02-04T10:02:25.704Z,103552.81
2023-02-04T10:03:28.003Z,103543.06
2023-02-04T10:04:29.870Z,103546.63
2023-02-04T10:05:33.745Z,103541.34
2023-02-04T10:06:37.473Z,103547.56
2023-02-04T10:07:39.420Z,103543.13
2023-02-04T10:08:42.190Z,103544.94
2023-02-04T10:09:44.023Z,103538.69
2023-02-04T10:10:48.065Z,103533.53
2023-02-04T10:11:50.029Z,103529.88
2023-02-04T10:12:55.105Z,103515.16
2023-02-04T10:13:57.120Z,103531.66
2023-02-04T10:15:00.590Z,103532.56
2023-02-04T10:16:10.467Z,103528.13
2023-02-04T10:17:16.600Z,103530.72
2023-02-04T10:18:29.137Z,103520.22
2023-02-04T10:19:32.211Z,103519.25
2023-02-04T10:20:34.547Z,103528.94
2023-02-04T10:21:37.060Z,103525.41
2023-02-04T10:22:39.679Z,103525.41
2023-02-04T10:23:43.641Z,103521.03
2023-02-04T10:24:45.524Z,103518.34
2023-02-04T10:25:47.324Z,103521.88
2023-02-04T10:26:49.522Z,103521.00
2023-02-04T10:27:59.599Z,103510.59
2023-02-04T10:29:03.252Z,103513.00
2023-02-04T10:30:05.649Z,103518.31
2023-02-04T10:31:26.736Z,103518.31
2023-02-04T10:32:33.449Z,103508.66
2023-02-04T10:33:37.165Z,103519.03
2023-02-04T10:34:40.122Z,103506.72
2023-02-04T10:35:47.319Z,103511.16
2023-02-04T10:36:51.986Z,103506.78
2023-02-04T10:38:05.936Z,103510.25
2023-02-04T10:39:19.706Z,103509.34
2023-02-04T10:40:35.853Z,103507.50
2023-02-04T10:41:40.098Z,103503.03
2023-02-04T10:42:49.525Z,103503.09
2023-02-04T10:44:03.723Z,103501.38
2023-02-04T10:45:05.913Z,103506.56
2023-02-04T10:46:07.718Z,103507.53
2023-02-04T10:47:18.010Z,103495.25
2023-02-04T10:48:19.999Z,103487.28
2023-02-04T10:49:24.751Z,103497.88
2023-02-04T10:50:30.833Z,103482.88
2023-02-04T10:51:33.390Z,103491.66
2023-02-04T10:52:39.229Z,103466.28
2023-02-04T10:53:59.422Z,103481.03
2023-02-04T10:55:03.977Z,103483.59
2023-02-04T10:56:16.972Z,103454.03
2023-02-04T10:57:22.012Z,103475.63
2023-02-04T10:58:28.064Z,103474.81
2023-02-04T10:59:30.065Z,103476.56
2023-02-04T11:00:32.190Z,103477.56
2023-02-04T11:01:34.310Z,103475.72
2023-02-04T11:02:46.199Z,103479.25
2023-02-04T11:03:50.001Z,103471.25
2023-02-04T11:04:53.478Z,103477.41
2023-02-04T11:05:58.059Z,103475.75
2023-02-04T11:06:59.868Z,103471.28
2023-02-04T11:08:03.380Z,103480.13
2023-02-04T11:09:05.351Z,103479.25
2023-02-04T11:10:12.808Z,103473.06
2023-02-04T11:11:16.975Z,103478.31
2023-02-04T11:12:41.941Z,103479.94
2023-02-04T11:13:49.778Z,103474.63
2023-02-04T11:14:56.134Z,103473.72
2023-02-04T11:16:25.600Z,103467.47
2023-02-04T11:17:32.501Z,103475.38
2023-02-04T11:18:48.756Z,103469.22
2023-02-04T11:19:50.529Z,103467.41
2023-02-04T11:20:55.584Z,103474.63
2023-02-04T11:22:21.695Z,103471.03
2023-02-04T11:23:26.604Z,103470.94
2023-02-04T11:24:34.072Z,103463.22
2023-02-04T11:25:39.678Z,103463.19
2023-02-04T11:26:43.449Z,103464.00
2023-02-04T11:27:45.290Z,103460.44
2023-02-04T11:28:50.782Z,103466.69
2023-02-04T11:30:04.116Z,103462.25
2023-02-04T11:31:19.526Z,103458.69
2023-02-04T11:32:38.153Z,103458.59
2023-02-04T11:33:42.236Z,103465.63
2023-02-04T11:34:47.430Z,103464.81
2023-02-04T11:36:11.446Z,103470.06
2023-02-04T11:37:17.422Z,103470.94
2023-02-04T11:38:26.464Z,103473.59
2023-02-04T11:39:45.656Z,103460.31
2023-02-04T11:40:57.282Z,103467.41
2023-02-04T11:42:00.441Z,103466.47
2023-02-04T11:43:14.908Z,103468.28
2023-02-04T11:44:18.820Z,103467.56
2023-02-04T11:45:26.879Z,103472.78
2023-02-04T11:46:29.592Z,103469.22
2023-02-04T11:47:36.722Z,103465.72
2023-02-04T11:48:39.048Z,103468.31
2023-02-04T11:49:40.993Z,103470.97
2023-02-04T11:50:43.041Z,103472.78
2023-02-04T11:51:47.651Z,103463.06
2023-02-04T11:52:49.466Z,103461.28
2023-02-04T11:53:52.351Z,103471.03
2023-02-04T11:54:56.145Z,103466.59
2023-02-04T11:55:58.848Z,103462.16
2023-02-04T11:57:01.284Z,103456.84
2023-02-04T11:58:03.734Z,103459.50
2023-02-04T11:59:05.553Z,103456.84
2023-02-04T12:00:18.080Z,103441.00
2023-02-04T12:01:25.329Z,103450.56